Inverness, Mississippi
Current Conditions -  °F | °C
As of 12:53 PM on Monday 20 Oct 2014 (Local Time) from KGLH Reporting Station
Clear Clear  
Wind Chill: 71°   Ceiling: Unl
Heat Index: 71°   Visibility: 10mi
Dew Point: 49°   Wind: 6mph
Humidity: 45%   Direction: 230°SW
Pressure: 30.08"   Gusts: NA
Location:  33.35°N, 90.59°W
Report Text: KGLH 201753Z AUTO 23005KT 10SM CLR 22/09 A3008 RMK AO2 SLP191 T02170094 10217 20072 58013
Loading
Personal Weather Stations






























Interactive Weather Map
Tropical Storm Tracking
New forecast layout! Learn more

10-Day Weather Forecast

Advertisements
Track Severe Weather on mobile